Time;durP1;ratioP1;P1;durP2;ratioP2;P2;SDS_P1;SDS_P2;PMS_P1;PMS_P2;Temp;Humidity;BMP_temperature;BMP_pressure;BME280_temperature;BME280_humidity;BME280_pressure;Samples;Min_cycle;Max_cycle;Signal;HPM_P1;HPM_P2
2020/12/22 00:00:09;;;;;;;2.63;2.50;;;12.60;77.80;;;;;;4863406;29;20466;-76
2020/12/22 00:02:42;;;;;;;2.37;2.17;;;12.60;77.90;;;;;;4879284;29;20464;-77
2020/12/22 00:05:09;;;;;;;2.43;2.33;;;12.60;77.70;;;;;;4862732;29;20603;-76
2020/12/22 00:07:35;;;;;;;2.60;2.40;;;12.60;77.70;;;;;;4879546;29;20467;-77
2020/12/22 00:10:02;;;;;;;1.93;1.83;;;12.60;77.70;;;;;;4879439;29;20989;-77
2020/12/22 00:12:29;;;;;;;3.20;2.50;;;12.60;78.00;;;;;;4861760;29;20480;-76
2020/12/22 00:14:56;;;;;;;3.13;2.67;;;12.50;78.10;;;;;;4861222;29;21122;-76
2020/12/22 00:17:23;;;;;;;2.47;2.27;;;12.50;78.30;;;;;;4876717;29;21032;-77
2020/12/22 00:19:50;;;;;;;2.93;2.73;;;12.50;78.40;;;;;;4868619;29;21045;-77
2020/12/22 00:22:16;;;;;;;2.90;2.70;;;12.50;78.50;;;;;;4877907;29;20532;-77
2020/12/22 00:24:43;;;;;;;3.17;2.33;;;12.60;78.60;;;;;;4878653;29;20461;-76
2020/12/22 00:27:10;;;;;;;2.13;2.00;;;12.60;78.60;;;;;;4867244;29;20457;-76
2020/12/22 00:29:36;;;;;;;2.20;1.97;;;12.60;78.50;;;;;;4869666;29;20479;-76
2020/12/22 00:32:03;;;;;;;2.33;2.13;;;12.60;78.60;;;;;;4878680;29;20516;-76
2020/12/22 00:34:31;;;;;;;2.50;2.30;;;12.60;78.70;;;;;;4871320;29;20461;-76
2020/12/22 00:36:59;;;;;;;3.17;1.77;;;12.60;78.80;;;;;;4860789;29;21008;-76
2020/12/22 00:39:26;;;;;;;2.23;2.03;;;12.60;78.70;;;;;;4866643;29;20473;-75
2020/12/22 00:41:53;;;;;;;3.00;1.77;;;12.70;78.70;;;;;;4875378;29;20457;-76
2020/12/22 00:44:20;;;;;;;2.20;2.10;;;12.70;78.60;;;;;;4863048;29;21015;-76
2020/12/22 00:46:46;;;;;;;1.80;1.70;;;12.70;78.50;;;;;;4865070;29;20994;-76
2020/12/22 00:49:13;;;;;;;2.07;1.90;;;12.70;78.50;;;;;;4876497;29;20462;-76
2020/12/22 00:51:41;;;;;;;2.10;2.00;;;12.70;78.70;;;;;;4878925;29;20492;-77
2020/12/22 00:54:07;;;;;;;1.80;1.70;;;12.70;78.60;;;;;;4877405;29;20475;-77
2020/12/22 00:56:34;;;;;;;1.90;1.80;;;12.80;78.70;;;;;;4879089;29;20801;-76
2020/12/22 00:59:00;;;;;;;3.90;1.77;;;12.80;78.70;;;;;;4861523;29;20468;-76
2020/12/22 01:01:30;;;;;;;1.97;1.80;;;12.80;78.60;;;;;;4878892;29;21017;-77
2020/12/22 01:03:56;;;;;;;1.80;1.70;;;12.80;78.80;;;;;;4866880;29;20464;-76
2020/12/22 01:06:23;;;;;;;1.50;1.40;;;12.80;78.80;;;;;;4878084;29;20957;-76
2020/12/22 01:08:50;;;;;;;1.80;1.70;;;12.90;79.00;;;;;;4878162;29;20452;-76
2020/12/22 01:11:17;;;;;;;1.30;1.20;;;13.00;78.80;;;;;;4863840;29;20504;-76
2020/12/22 01:13:44;;;;;;;1.63;1.53;;;13.00;78.70;;;;;;4873279;29;20958;-76
2020/12/22 01:16:11;;;;;;;3.17;1.40;;;13.00;78.50;;;;;;4876299;29;20954;-76
2020/12/22 01:18:38;;;;;;;1.20;1.10;;;13.10;78.50;;;;;;4878203;29;20468;-76
2020/12/22 01:21:05;;;;;;;1.43;1.33;;;13.10;78.40;;;;;;4868142;29;20488;-77
2020/12/22 01:23:31;;;;;;;1.53;1.20;;;13.10;78.40;;;;;;4869005;29;20465;-77
2020/12/22 01:25:59;;;;;;;1.63;1.53;;;13.10;78.30;;;;;;4877676;29;20958;-77
2020/12/22 01:28:25;;;;;;;2.10;1.20;;;13.20;78.30;;;;;;4869745;29;20454;-77
2020/12/22 01:30:52;;;;;;;1.10;1.10;;;13.20;78.30;;;;;;4867453;29;20569;-76
2020/12/22 01:33:19;;;;;;;1.47;1.37;;;13.30;78.30;;;;;;4881830;29;20461;-77
2020/12/22 01:35:45;;;;;;;1.60;1.50;;;13.20;78.10;;;;;;4871649;29;20496;-77
2020/12/22 01:38:12;;;;;;;1.20;1.20;;;13.30;78.00;;;;;;4874178;29;20480;-76
2020/12/22 01:40:38;;;;;;;2.10;1.27;;;13.30;77.90;;;;;;4880807;29;20457;-76
2020/12/22 01:43:06;;;;;;;1.20;1.10;;;13.30;77.70;;;;;;4879829;29;20461;-76
2020/12/22 01:45:32;;;;;;;1.73;1.60;;;13.30;77.60;;;;;;4874039;29;20552;-77
2020/12/22 01:47:59;;;;;;;1.33;1.23;;;13.30;77.50;;;;;;4882176;29;20958;-77
2020/12/22 01:50:25;;;;;;;1.50;1.40;;;13.30;77.40;;;;;;4881581;29;20495;-76
2020/12/22 01:52:52;;;;;;;1.30;1.20;;;13.30;77.40;;;;;;4880018;29;20488;-76
2020/12/22 01:55:19;;;;;;;1.33;1.23;;;13.30;77.50;;;;;;4877577;29;20457;-76
2020/12/22 01:57:45;;;;;;;1.47;1.37;;;13.20;77.50;;;;;;4882063;29;20460;-76
2020/12/22 02:00:12;;;;;;;1.37;1.17;;;13.20;77.70;;;;;;4881582;29;20453;-76
2020/12/22 02:02:41;;;;;;;2.60;1.10;;;13.20;77.80;;;;;;4869630;29;20462;-77
2020/12/22 02:05:07;;;;;;;1.23;1.13;;;13.20;77.70;;;;;;4864038;29;20553;-77
2020/12/22 02:07:35;;;;;;;1.50;1.40;;;13.30;77.80;;;;;;4872549;29;20977;-76
2020/12/22 02:10:02;;;;;;;1.17;1.13;;;13.30;77.70;;;;;;4879813;29;20487;-74
2020/12/22 02:12:28;;;;;;;1.20;1.10;;;13.30;77.70;;;;;;4873288;29;20477;-74
2020/12/22 02:14:55;;;;;;;1.03;1.03;;;13.30;77.70;;;;;;4863324;29;20529;-74
2020/12/22 02:17:22;;;;;;;0.60;0.60;;;13.30;77.60;;;;;;4878284;29;20465;-75
2020/12/22 02:19:49;;;;;;;2.03;1.00;;;13.30;77.70;;;;;;4881787;29;20467;-75
2020/12/22 02:22:16;;;;;;;1.67;1.23;;;13.30;78.40;;;;;;4870975;29;20882;-75
2020/12/22 02:24:43;;;;;;;1.00;0.90;;;13.30;77.80;;;;;;4873844;29;20477;-75
2020/12/22 02:27:09;;;;;;;0.80;0.80;;;13.20;77.60;;;;;;4868506;29;20895;-75
2020/12/22 02:29:36;;;;;;;0.70;0.70;;;13.20;77.80;;;;;;4869034;29;20464;-75
2020/12/22 02:32:02;;;;;;;0.77;0.77;;;13.20;78.00;;;;;;4881608;29;20989;-75
2020/12/22 02:34:29;;;;;;;0.53;0.53;;;13.20;78.00;;;;;;4878981;29;20465;-75
2020/12/22 02:36:56;;;;;;;0.70;0.70;;;13.20;78.20;;;;;;4873326;29;20970;-75
2020/12/22 02:39:23;;;;;;;0.87;0.80;;;13.30;78.40;;;;;;4862790;29;20461;-75
2020/12/22 02:41:50;;;;;;;0.60;0.60;;;13.30;78.40;;;;;;4875372;29;20468;-76
2020/12/22 02:44:17;;;;;;;2.10;1.07;;;13.30;78.40;;;;;;4866561;29;20462;-75
2020/12/22 02:46:43;;;;;;;0.80;0.80;;;13.30;78.30;;;;;;4874744;29;20457;-75
2020/12/22 02:49:10;;;;;;;0.60;0.60;;;13.30;78.20;;;;;;4879191;29;20984;-75
2020/12/22 02:51:36;;;;;;;0.70;0.70;;;13.30;78.40;;;;;;4881256;29;20869;-75
2020/12/22 02:54:03;;;;;;;0.60;0.60;;;13.30;78.40;;;;;;4879661;29;20488;-75
2020/12/22 02:56:30;;;;;;;1.70;0.70;;;13.40;78.50;;;;;;4869758;29;20475;-76
2020/12/22 02:58:57;;;;;;;1.33;0.67;;;13.40;78.40;;;;;;4871064;29;20484;-75
2020/12/22 03:01:24;;;;;;;0.60;0.60;;;13.40;78.30;;;;;;4878331;29;20504;-76
2020/12/22 03:03:50;;;;;;;0.80;0.80;;;13.40;78.40;;;;;;4880499;29;20539;-75
2020/12/22 03:06:17;;;;;;;0.60;0.60;;;13.40;78.40;;;;;;4873113;29;20530;-75
2020/12/22 03:08:43;;;;;;;0.60;0.60;;;13.40;78.50;;;;;;4874647;29;20477;-75
2020/12/22 03:11:10;;;;;;;0.80;0.80;;;13.40;78.70;;;;;;4880797;29;20595;-76
2020/12/22 03:13:37;;;;;;;0.70;0.70;;;13.40;78.80;;;;;;4879190;29;20608;-76
2020/12/22 03:16:04;;;;;;;0.80;0.80;;;13.40;78.70;;;;;;4880854;29;20491;-75
2020/12/22 03:18:30;;;;;;;0.80;0.80;;;13.50;78.70;;;;;;4865411;29;20857;-76
2020/12/22 03:20:57;;;;;;;1.00;0.70;;;13.50;78.60;;;;;;4862020;29;20509;-76
2020/12/22 03:23:24;;;;;;;0.60;0.60;;;13.50;78.40;;;;;;4874106;29;20476;-76
2020/12/22 03:25:50;;;;;;;3.70;1.10;;;13.50;78.60;;;;;;4880886;29;20854;-76
2020/12/22 03:28:17;;;;;;;0.60;0.60;;;13.50;78.50;;;;;;4871421;29;20517;-77
2020/12/22 03:30:44;;;;;;;0.70;0.70;;;13.50;79.10;;;;;;4880471;29;20493;-77
2020/12/22 03:33:10;;;;;;;0.70;0.70;;;13.60;78.60;;;;;;4879870;29;20476;-76
2020/12/22 03:35:37;;;;;;;0.60;0.60;;;13.60;78.50;;;;;;4865585;29;20462;-76
2020/12/22 03:38:03;;;;;;;0.70;0.70;;;13.60;78.40;;;;;;4870532;29;20484;-76
2020/12/22 03:40:30;;;;;;;0.70;0.70;;;13.60;78.30;;;;;;4880369;29;20830;-76
2020/12/22 03:42:57;;;;;;;0.70;0.70;;;13.60;78.40;;;;;;4872754;29;20465;-76
2020/12/22 03:45:23;;;;;;;1.13;0.93;;;13.60;78.20;;;;;;4871692;29;20461;-77
2020/12/22 03:47:51;;;;;;;0.60;0.60;;;13.60;78.40;;;;;;4873263;29;20462;-77
2020/12/22 03:50:18;;;;;;;0.60;0.60;;;13.60;78.60;;;;;;4873313;29;20484;-77
2020/12/22 03:52:44;;;;;;;0.70;0.70;;;13.60;78.70;;;;;;4883184;29;20535;-77
2020/12/22 03:55:11;;;;;;;0.80;0.80;;;13.60;78.60;;;;;;4874610;29;20469;-77
2020/12/22 03:57:38;;;;;;;0.80;0.80;;;13.70;78.60;;;;;;4862499;29;20517;-75
2020/12/22 04:00:05;;;;;;;2.50;1.33;;;13.70;78.40;;;;;;4865894;29;20463;-76
2020/12/22 04:02:31;;;;;;;0.70;0.70;;;13.70;78.30;;;;;;4878289;29;20481;-76
2020/12/22 04:04:59;;;;;;;1.43;0.60;;;13.70;78.30;;;;;;4879019;29;20556;-76
2020/12/22 04:07:25;;;;;;;0.83;0.83;;;13.70;78.30;;;;;;4877742;29;20476;-76
2020/12/22 04:09:52;;;;;;;1.00;0.90;;;13.70;78.30;;;;;;4878869;29;20485;-75
2020/12/22 04:12:18;;;;;;;0.60;0.60;;;13.70;78.20;;;;;;4879216;29;20552;-76
2020/12/22 04:14:45;;;;;;;0.60;0.60;;;13.80;78.30;;;;;;4878686;29;20927;-76
2020/12/22 04:17:12;;;;;;;0.67;0.67;;;13.70;78.00;;;;;;4869172;29;20461;-76
2020/12/22 04:19:39;;;;;;;0.60;0.60;;;13.80;78.20;;;;;;4874524;29;20500;-75
2020/12/22 04:22:06;;;;;;;0.50;0.50;;;13.70;78.00;;;;;;4859266;29;20580;-76
2020/12/22 04:24:33;;;;;;;0.70;0.70;;;13.70;78.20;;;;;;4873029;29;20453;-76
2020/12/22 04:26:59;;;;;;;0.60;0.60;;;13.70;78.30;;;;;;4877439;29;20480;-76
2020/12/22 04:29:26;;;;;;;0.80;0.60;;;13.80;78.30;;;;;;4894125;29;20500;-76
2020/12/22 04:31:53;;;;;;;0.60;0.60;;;13.80;78.20;;;;;;4880865;29;20492;-76
2020/12/22 04:34:19;;;;;;;0.60;0.60;;;13.80;78.20;;;;;;4879094;29;20838;-76
2020/12/22 04:36:46;;;;;;;0.50;0.50;;;13.80;78.20;;;;;;4864695;29;20469;-76
2020/12/22 04:39:13;;;;;;;0.70;0.60;;;13.80;78.10;;;;;;4875917;29;20997;-76
2020/12/22 04:41:45;;;;;;;0.60;0.60;;;13.80;78.10;;;;;;4878440;29;20842;-76
2020/12/22 04:44:12;;;;;;;0.70;0.60;;;13.80;78.00;;;;;;4878996;29;20457;-76
2020/12/22 04:46:39;;;;;;;0.60;0.60;;;13.80;78.10;;;;;;4878218;29;20500;-77
2020/12/22 04:49:10;;;;;;;0.50;0.50;;;13.90;78.30;;;;;;4875680;29;20517;-76
2020/12/22 04:51:38;;;;;;;0.50;0.50;;;13.80;78.10;;;;;;4878715;29;20507;-75
2020/12/22 04:54:05;;;;;;;0.60;0.60;;;13.80;78.40;;;;;;4877604;29;20563;-76
2020/12/22 04:56:33;;;;;;;0.70;0.70;;;13.90;78.50;;;;;;4874092;29;20921;-76
2020/12/22 04:58:59;;;;;;;0.70;0.70;;;13.90;78.40;;;;;;4877468;29;20461;-77
2020/12/22 05:01:26;;;;;;;0.70;0.70;;;13.90;78.40;;;;;;4871057;29;20462;-76
2020/12/22 05:03:53;;;;;;;0.80;0.60;;;13.90;78.40;;;;;;4860286;29;20548;-76
2020/12/22 05:06:19;;;;;;;0.63;0.63;;;13.90;78.40;;;;;;4860952;29;20461;-76
2020/12/22 05:08:46;;;;;;;0.67;0.67;;;13.90;78.30;;;;;;4872148;29;20563;-76
2020/12/22 05:11:16;;;;;;;0.97;0.77;;;13.90;78.30;;;;;;4878067;29;20500;-76
2020/12/22 05:13:44;;;;;;;1.00;0.60;;;13.90;78.40;;;;;;4878071;29;20936;-76
2020/12/22 05:16:11;;;;;;;0.87;0.60;;;13.90;78.40;;;;;;4876460;29;20463;-76
2020/12/22 05:18:37;;;;;;;0.70;0.70;;;13.90;78.40;;;;;;4869349;29;20461;-76
2020/12/22 05:21:04;;;;;;;0.80;0.70;;;13.90;78.40;;;;;;4873268;29;20477;-76
2020/12/22 05:23:31;;;;;;;1.17;0.70;;;13.90;78.50;;;;;;4860187;29;20484;-76
2020/12/22 05:25:59;;;;;;;0.80;0.80;;;13.90;78.70;;;;;;4863891;29;20543;-75
2020/12/22 05:28:27;;;;;;;0.70;0.70;;;13.90;78.80;;;;;;4873775;29;20461;-76
2020/12/22 05:30:54;;;;;;;1.60;0.80;;;13.90;78.70;;;;;;4863041;29;20875;-76
2020/12/22 05:33:21;;;;;;;0.80;0.80;;;13.90;78.60;;;;;;4877783;29;20523;-77
2020/12/22 05:35:48;;;;;;;0.60;0.60;;;13.90;78.60;;;;;;4878240;29;20449;-77
2020/12/22 05:38:18;;;;;;;4.10;1.20;;;14.00;78.80;;;;;;4860110;29;20529;-77
2020/12/22 05:40:45;;;;;;;0.60;0.60;;;14.00;78.80;;;;;;4877264;29;20473;-76
2020/12/22 05:43:18;;;;;;;1.13;0.70;;;13.90;78.90;;;;;;4875897;29;20517;-77
2020/12/22 05:45:45;;;;;;;0.60;0.60;;;13.90;79.00;;;;;;4877662;29;20469;-79
2020/12/22 05:48:15;;;;;;;0.50;0.50;;;14.00;79.10;;;;;;4873213;29;20827;-76
2020/12/22 05:50:48;;;;;;;0.50;0.50;;;14.00;79.10;;;;;;4874489;29;20520;-77
2020/12/22 05:53:15;;;;;;;0.63;0.63;;;14.00;79.00;;;;;;4868029;29;21013;-77
2020/12/22 05:55:42;;;;;;;1.93;1.10;;;14.00;79.10;;;;;;4877683;29;20965;-77
2020/12/22 05:58:09;;;;;;;4.43;0.83;;;14.00;79.10;;;;;;4876576;29;20464;-77
2020/12/22 06:00:37;;;;;;;0.70;0.70;;;14.00;78.90;;;;;;4862971;29;20473;-77
2020/12/22 06:03:09;;;;;;;0.70;0.70;;;14.00;79.10;;;;;;4862609;29;20518;-76
2020/12/22 06:05:39;;;;;;;0.50;0.50;;;14.10;79.20;;;;;;4868477;29;20464;-78
2020/12/22 06:08:07;;;;;;;0.60;0.60;;;14.10;79.20;;;;;;4872876;29;20469;-77
2020/12/22 06:10:35;;;;;;;0.73;0.73;;;14.00;79.20;;;;;;4863933;29;20485;-77
2020/12/22 06:13:02;;;;;;;0.60;0.60;;;14.10;79.40;;;;;;4877053;29;20461;-77
2020/12/22 06:15:29;;;;;;;0.77;0.77;;;14.10;79.30;;;;;;4876741;29;20465;-77
2020/12/22 06:17:55;;;;;;;1.00;0.70;;;14.10;79.10;;;;;;4872373;29;20453;-77
2020/12/22 06:20:23;;;;;;;0.83;0.67;;;14.10;79.10;;;;;;4867321;29;20831;-77
2020/12/22 06:22:51;;;;;;;0.60;0.50;;;14.20;79.10;;;;;;4863524;29;21003;-77
2020/12/22 06:25:19;;;;;;;1.23;0.90;;;14.20;79.10;;;;;;4863118;29;21791;-77
2020/12/22 06:27:46;;;;;;;0.90;0.90;;;14.20;79.30;;;;;;4880735;29;20493;-77
2020/12/22 06:30:14;;;;;;;0.70;0.60;;;14.20;79.20;;;;;;4870655;29;20468;-77
2020/12/22 06:32:41;;;;;;;0.90;0.90;;;14.20;79.10;;;;;;4864615;29;20473;-77
2020/12/22 06:35:29;;;;;;;0.70;0.70;;;14.30;79.00;;;;;;4872547;29;20476;-77
2020/12/22 06:37:57;;;;;;;0.80;0.80;;;14.30;79.00;;;;;;4862631;29;20548;-77
2020/12/22 06:40:52;;;;;;;0.80;0.80;;;14.30;78.90;;;;;;4869849;29;20513;-77
2020/12/22 06:43:42;;;;;;;0.77;0.60;;;14.30;79.00;;;;;;4880607;29;20548;-77
2020/12/22 06:46:10;;;;;;;4.50;0.97;;;14.30;79.20;;;;;;4880140;29;20839;-77
2020/12/22 06:48:46;;;;;;;0.70;0.70;;;14.30;79.20;;;;;;4880482;29;20962;-78
2020/12/22 06:51:23;;;;;;;0.70;0.70;;;14.30;79.00;;;;;;4866945;29;20497;-77
2020/12/22 06:53:51;;;;;;;0.80;0.80;;;14.30;79.00;;;;;;4870794;29;20564;-77
2020/12/22 06:56:39;;;;;;;1.43;0.70;;;14.30;79.10;;;;;;4880148;29;20483;-78
2020/12/22 06:59:06;;;;;;;0.70;0.70;;;14.30;79.10;;;;;;4894128;29;20519;-77
2020/12/22 07:01:35;;;;;;;0.60;0.60;;;14.30;79.10;;;;;;4879073;29;20473;-77
2020/12/22 07:04:21;;;;;;;0.60;0.60;;;14.30;79.20;;;;;;4879800;29;20847;-77
2020/12/22 07:06:52;;;;;;;0.70;0.70;;;14.30;79.10;;;;;;4865391;29;20962;-76
2020/12/22 07:09:22;;;;;;;0.80;0.80;;;14.20;79.30;;;;;;4876386;29;20509;-76
2020/12/22 07:11:51;;;;;;;0.70;0.70;;;14.30;79.20;;;;;;4861921;29;20883;-75
2020/12/22 07:14:20;;;;;;;0.70;0.70;;;14.30;79.00;;;;;;4878718;29;20460;-76
2020/12/22 07:16:55;;;;;;;0.67;0.67;;;14.30;78.80;;;;;;4878528;29;20468;-76
2020/12/22 07:19:28;;;;;;;0.70;0.70;;;14.40;78.90;;;;;;4879653;29;20529;-76
2020/12/22 07:21:55;;;;;;;0.87;0.77;;;14.40;78.70;;;;;;4880227;29;20817;-77
2020/12/22 07:24:23;;;;;;;0.83;0.70;;;14.30;78.70;;;;;;4863900;29;20816;-76
2020/12/22 07:26:50;;;;;;;0.80;0.70;;;14.30;79.40;;;;;;4866551;29;20473;-76
2020/12/22 07:29:16;;;;;;;0.80;0.80;;;14.40;78.60;;;;;;4877240;29;20516;-76
2020/12/22 07:31:43;;;;;;;0.67;0.67;;;14.40;78.30;;;;;;4878071;29;21206;-76
2020/12/22 07:34:10;;;;;;;0.80;0.80;;;14.40;78.10;;;;;;4868616;29;20458;-76
2020/12/22 07:36:38;;;;;;;0.80;0.80;;;14.50;78.00;;;;;;4861607;29;20541;-76
2020/12/22 07:39:19;;;;;;;0.60;0.60;;;14.50;77.70;;;;;;4873402;29;20477;-76
2020/12/22 07:41:47;;;;;;;1.00;0.90;;;14.60;77.60;;;;;;4880657;29;20455;-76
2020/12/22 07:44:16;;;;;;;1.60;0.87;;;14.60;77.40;;;;;;4880478;29;20457;-76
2020/12/22 07:46:43;;;;;;;0.70;0.70;;;14.70;77.10;;;;;;4879661;29;20476;-76
2020/12/22 07:49:11;;;;;;;1.03;0.93;;;14.70;76.80;;;;;;4880213;29;20444;-76
2020/12/22 07:51:41;;;;;;;0.90;0.90;;;14.80;76.60;;;;;;4880178;29;20504;-76
2020/12/22 07:54:08;;;;;;;0.63;0.63;;;14.80;76.60;;;;;;4879075;29;20845;-76
2020/12/22 07:56:36;;;;;;;0.80;0.80;;;14.80;76.40;;;;;;4878999;29;20869;-76
2020/12/22 07:59:05;;;;;;;0.60;0.60;;;14.80;76.20;;;;;;4879863;29;20869;-76
2020/12/22 08:01:38;;;;;;;0.50;0.50;;;14.70;76.20;;;;;;4879911;29;20449;-77
2020/12/22 08:04:15;;;;;;;0.83;0.80;;;14.80;76.20;;;;;;4878204;29;20543;-77
2020/12/22 08:06:42;;;;;;;3.47;2.73;;;14.80;76.10;;;;;;4871938;29;20477;-77
2020/12/22 08:09:09;;;;;;;0.70;0.70;;;14.80;75.90;;;;;;4875964;29;20469;-78
2020/12/22 08:11:36;;;;;;;1.00;0.70;;;14.90;75.80;;;;;;4875348;29;20552;-75
2020/12/22 08:14:04;;;;;;;1.00;0.70;;;14.90;75.60;;;;;;4874894;29;20469;-75
2020/12/22 08:16:35;;;;;;;1.20;0.77;;;14.90;75.60;;;;;;4866632;29;20537;-76
2020/12/22 08:19:05;;;;;;;0.70;0.70;;;14.90;75.50;;;;;;4872804;29;20464;-76
2020/12/22 08:21:34;;;;;;;0.83;0.83;;;14.90;75.40;;;;;;4880336;29;20550;-76
2020/12/22 08:24:02;;;;;;;1.20;0.70;;;14.90;75.40;;;;;;4878527;29;20493;-76
2020/12/22 08:26:30;;;;;;;0.80;0.80;;;14.90;75.40;;;;;;4878169;29;20472;-75
2020/12/22 08:28:56;;;;;;;0.80;0.80;;;15.00;75.30;;;;;;4878540;29;20467;-76
2020/12/22 08:31:26;;;;;;;1.60;0.70;;;15.00;75.30;;;;;;4876287;29;20492;-75
2020/12/22 08:33:54;;;;;;;0.80;0.80;;;14.90;75.30;;;;;;4874888;29;20457;-75
2020/12/22 08:36:22;;;;;;;0.80;0.80;;;14.90;75.40;;;;;;4878487;29;20484;-74
2020/12/22 08:38:49;;;;;;;0.73;0.73;;;14.90;75.50;;;;;;4877959;29;20480;-74
2020/12/22 08:41:18;;;;;;;0.60;0.50;;;15.00;75.40;;;;;;4871510;29;20469;-74
2020/12/22 08:43:52;;;;;;;0.70;0.70;;;15.00;75.50;;;;;;4867092;29;20464;-75
2020/12/22 08:46:20;;;;;;;1.03;0.70;;;15.00;75.30;;;;;;4861574;29;20453;-74
2020/12/22 08:48:48;;;;;;;1.00;0.80;;;15.10;75.10;;;;;;4876588;29;20452;-74
2020/12/22 08:51:25;;;;;;;0.83;0.80;;;15.10;75.00;;;;;;4878186;29;21015;-74
2020/12/22 08:53:53;;;;;;;0.80;0.70;;;15.10;75.00;;;;;;4878279;29;20484;-75
2020/12/22 08:56:24;;;;;;;0.70;0.70;;;15.10;75.10;;;;;;4879430;29;20445;-74
2020/12/22 08:58:54;;;;;;;1.07;0.77;;;15.20;74.90;;;;;;4877917;29;20891;-74
2020/12/22 09:01:22;;;;;;;0.70;0.60;;;15.20;74.90;;;;;;4878607;29;20551;-74
2020/12/22 09:03:55;;;;;;;0.70;0.70;;;15.30;74.70;;;;;;4878442;29;20490;-74
2020/12/22 09:06:41;;;;;;;0.60;0.50;;;15.40;74.40;;;;;;4869952;29;20971;-74
2020/12/22 09:09:09;;;;;;;2.40;1.30;;;15.40;74.20;;;;;;4859682;29;20474;-74
2020/12/22 09:11:36;;;;;;;0.77;0.77;;;15.40;74.40;;;;;;4873606;29;20548;-74
2020/12/22 09:14:05;;;;;;;0.73;0.73;;;15.40;74.40;;;;;;4877007;29;20456;-74
2020/12/22 09:16:58;;;;;;;0.60;0.60;;;15.40;74.40;;;;;;4877168;29;20468;-75
2020/12/22 09:19:30;;;;;;;0.80;0.80;;;15.40;74.60;;;;;;4833223;29;20572;-75
2020/12/22 09:22:03;;;;;;;2.10;0.80;;;15.40;74.80;;;;;;4874535;29;20456;-74
2020/12/22 09:24:31;;;;;;;0.70;0.70;;;15.40;75.00;;;;;;4863225;29;20464;-75
2020/12/22 09:27:00;;;;;;;0.60;0.60;;;15.40;74.90;;;;;;4878851;29;20467;-75
2020/12/22 09:29:28;;;;;;;0.50;0.50;;;15.40;75.20;;;;;;4866712;29;20453;-75
2020/12/22 09:31:55;;;;;;;0.70;0.70;;;15.40;75.10;;;;;;4874048;29;21020;-75
2020/12/22 09:34:22;;;;;;;0.70;0.70;;;15.30;75.60;;;;;;4875870;29;20461;-77
2020/12/22 09:36:54;;;;;;;0.70;0.70;;;15.30;76.40;;;;;;4876937;29;20457;-76
2020/12/22 09:39:22;;;;;;;0.67;0.67;;;15.20;76.70;;;;;;4877013;29;20452;-75
2020/12/22 09:41:48;;;;;;;0.80;0.60;;;15.20;77.20;;;;;;4876616;29;20457;-75
2020/12/22 09:44:15;;;;;;;0.60;0.60;;;15.20;77.40;;;;;;4878528;29;20461;-75
2020/12/22 09:46:42;;;;;;;1.23;0.70;;;15.20;77.40;;;;;;4878504;29;20460;-76
2020/12/22 09:49:09;;;;;;;0.90;0.70;;;15.20;77.50;;;;;;4878399;29;20562;-75
2020/12/22 09:51:35;;;;;;;0.67;0.67;;;15.20;77.60;;;;;;4879995;29;20500;-74
2020/12/22 09:54:03;;;;;;;0.70;0.70;;;15.30;77.70;;;;;;4881756;29;20986;-74
2020/12/22 09:56:31;;;;;;;0.90;0.90;;;15.30;77.70;;;;;;4882118;29;20512;-75
2020/12/22 09:58:58;;;;;;;0.70;0.70;;;15.40;77.60;;;;;;4881741;29;20985;-75
2020/12/22 10:01:26;;;;;;;4.47;0.90;;;15.40;77.50;;;;;;4882114;29;20453;-75
2020/12/22 10:03:53;;;;;;;0.67;0.67;;;15.40;77.20;;;;;;4886939;29;20567;-74
2020/12/22 10:06:20;;;;;;;2.23;0.70;;;15.40;77.10;;;;;;4881125;29;20467;-74
2020/12/22 10:08:48;;;;;;;0.80;0.80;;;15.40;76.80;;;;;;4879297;29;20481;-75
2020/12/22 10:11:16;;;;;;;0.70;0.63;;;15.50;76.80;;;;;;4879192;29;20499;-74
2020/12/22 10:13:43;;;;;;;1.00;0.90;;;15.50;76.60;;;;;;4880504;29;20460;-74
2020/12/22 10:16:11;;;;;;;0.60;0.60;;;15.50;76.50;;;;;;4877567;29;20576;-74
2020/12/22 10:18:38;;;;;;;1.03;0.77;;;15.60;76.40;;;;;;4881728;29;20452;-75
2020/12/22 10:21:06;;;;;;;0.60;0.60;;;15.60;76.30;;;;;;4881083;29;20475;-75
2020/12/22 10:23:33;;;;;;;0.60;0.60;;;15.60;75.80;;;;;;4879057;29;20460;-75
2020/12/22 10:26:02;;;;;;;0.63;0.63;;;15.60;75.40;;;;;;4863296;29;20453;-75
2020/12/22 10:28:30;;;;;;;0.70;0.70;;;15.70;75.40;;;;;;4862870;29;20489;-75
2020/12/22 10:30:57;;;;;;;1.20;0.90;;;15.70;75.00;;;;;;4878660;29;20579;-75
2020/12/22 10:33:24;;;;;;;0.67;0.60;;;15.60;74.90;;;;;;4871409;29;20457;-76
2020/12/22 10:35:51;;;;;;;0.97;0.87;;;15.70;75.30;;;;;;4871897;29;20489;-75
2020/12/22 10:38:17;;;;;;;0.60;0.60;;;15.70;74.80;;;;;;4874342;29;20954;-75
2020/12/22 10:40:44;;;;;;;0.53;0.53;;;15.80;74.60;;;;;;4874775;29;20478;-75
2020/12/22 10:43:11;;;;;;;1.17;0.50;;;15.70;74.20;;;;;;4870651;29;20961;-75
2020/12/22 10:45:39;;;;;;;1.03;0.80;;;15.80;74.30;;;;;;4866526;29;20470;-75
2020/12/22 10:48:06;;;;;;;0.50;0.50;;;15.80;73.90;;;;;;4881578;29;20529;-76
2020/12/22 10:50:33;;;;;;;0.70;0.70;;;15.80;73.80;;;;;;4880198;29;20555;-76
2020/12/22 10:53:00;;;;;;;0.70;0.70;;;15.80;73.70;;;;;;4862325;29;20488;-75
2020/12/22 10:55:26;;;;;;;0.90;0.83;;;15.90;73.70;;;;;;4866667;29;20498;-74
2020/12/22 10:57:53;;;;;;;0.80;0.80;;;15.80;73.30;;;;;;4873643;29;20480;-75
2020/12/22 11:00:20;;;;;;;0.60;0.60;;;15.80;73.50;;;;;;4866917;29;20498;-75
2020/12/22 11:02:50;;;;;;;0.80;0.80;;;15.70;73.60;;;;;;4877433;29;20460;-75
2020/12/22 11:05:17;;;;;;;0.67;0.67;;;15.70;73.70;;;;;;4871475;29;20529;-75
2020/12/22 11:07:47;;;;;;;0.97;0.80;;;15.80;73.70;;;;;;4874076;29;20516;-75
2020/12/22 11:10:13;;;;;;;0.60;0.60;;;15.80;73.50;;;;;;4878199;29;20804;-75
2020/12/22 11:12:41;;;;;;;0.83;0.83;;;15.90;73.30;;;;;;4879091;29;20496;-75
2020/12/22 11:15:07;;;;;;;0.73;0.70;;;16.00;73.20;;;;;;4866894;29;20494;-75
2020/12/22 11:17:34;;;;;;;0.67;0.67;;;15.90;73.00;;;;;;4865304;29;20969;-75
2020/12/22 11:20:02;;;;;;;0.67;0.67;;;15.90;72.90;;;;;;4862783;29;20458;-75
2020/12/22 11:22:28;;;;;;;0.80;0.80;;;15.90;72.90;;;;;;4869221;29;20475;-75
2020/12/22 11:24:55;;;;;;;0.60;0.60;;;15.90;73.10;;;;;;4875997;29;20973;-75
2020/12/22 11:27:22;;;;;;;0.80;0.80;;;15.80;73.20;;;;;;4862010;29;20450;-75
2020/12/22 11:29:48;;;;;;;1.43;0.60;;;15.90;73.40;;;;;;4868211;29;20460;-75
2020/12/22 11:32:15;;;;;;;0.73;0.73;;;15.90;73.20;;;;;;4862970;29;20905;-74
2020/12/22 11:34:41;;;;;;;0.60;0.60;;;15.90;73.30;;;;;;4877242;29;20485;-75
2020/12/22 11:37:08;;;;;;;0.80;0.80;;;15.90;73.30;;;;;;4861651;29;20450;-75
2020/12/22 11:39:35;;;;;;;0.77;0.77;;;16.00;73.20;;;;;;4879367;29;20484;-75
2020/12/22 11:42:02;;;;;;;0.97;0.87;;;16.00;73.10;;;;;;4880153;29;20844;-75
2020/12/22 11:44:29;;;;;;;0.70;0.70;;;16.00;73.20;;;;;;4862946;29;20469;-76
2020/12/22 11:46:55;;;;;;;0.70;0.70;;;16.00;73.40;;;;;;4878062;29;20485;-75
2020/12/22 11:49:23;;;;;;;0.93;0.80;;;15.90;73.60;;;;;;4879252;29;20468;-76
2020/12/22 11:51:55;;;;;;;0.60;0.60;;;15.90;73.80;;;;;;4878990;29;20496;-76
2020/12/22 11:54:23;;;;;;;1.07;0.90;;;15.90;73.90;;;;;;4845889;29;20883;-76
2020/12/22 11:56:50;;;;;;;0.70;0.70;;;15.90;73.80;;;;;;4845560;29;21035;-75
2020/12/22 11:59:16;;;;;;;0.70;0.70;;;15.90;74.00;;;;;;4842999;29;20466;-76
2020/12/22 12:01:43;;;;;;;0.70;0.70;;;15.90;74.00;;;;;;4854107;29;20460;-76
2020/12/22 12:04:09;;;;;;;1.27;0.80;;;16.00;74.10;;;;;;4861379;29;20472;-76
2020/12/22 12:06:36;;;;;;;0.60;0.60;;;16.00;74.00;;;;;;4860452;29;20484;-74
2020/12/22 12:09:05;;;;;;;0.70;0.70;;;16.00;73.90;;;;;;4861007;29;20464;-74
2020/12/22 12:11:32;;;;;;;1.47;0.83;;;16.00;73.90;;;;;;4852174;29;21037;-75
2020/12/22 12:13:59;;;;;;;0.80;0.80;;;16.10;73.90;;;;;;4841935;29;20467;-75
2020/12/22 12:16:25;;;;;;;1.30;1.20;;;16.10;73.80;;;;;;4852923;29;20484;-75
2020/12/22 12:18:52;;;;;;;0.80;0.80;;;16.20;73.90;;;;;;4859276;29;20473;-74
2020/12/22 12:21:19;;;;;;;0.80;0.80;;;16.20;73.80;;;;;;4847388;29;20851;-75
2020/12/22 12:23:46;;;;;;;0.70;0.70;;;16.20;73.80;;;;;;4844268;29;20549;-75
2020/12/22 12:26:13;;;;;;;1.00;1.00;;;16.30;74.00;;;;;;4855658;29;20454;-75
2020/12/22 12:28:41;;;;;;;0.77;0.70;;;16.40;73.70;;;;;;4860911;29;20465;-75
2020/12/22 12:31:13;;;;;;;0.70;0.70;;;16.50;73.10;;;;;;4857771;29;20847;-75
2020/12/22 12:33:39;;;;;;;0.80;0.80;;;16.60;72.90;;;;;;4860451;29;20457;-75
2020/12/22 12:36:06;;;;;;;0.80;0.80;;;16.60;72.60;;;;;;4849925;29;20472;-75
2020/12/22 12:38:32;;;;;;;1.57;0.80;;;16.60;72.60;;;;;;4852102;29;20459;-75
2020/12/22 12:40:59;;;;;;;0.70;0.60;;;16.50;72.80;;;;;;4843382;29;20459;-75
2020/12/22 12:43:26;;;;;;;1.00;0.90;;;16.50;73.10;;;;;;4859409;29;20461;-75
2020/12/22 12:45:53;;;;;;;0.77;0.77;;;16.40;73.30;;;;;;4860476;29;20460;-75
2020/12/22 12:48:20;;;;;;;0.73;0.73;;;16.40;73.40;;;;;;4852401;29;20462;-75
2020/12/22 12:50:46;;;;;;;1.30;1.20;;;16.30;74.10;;;;;;4853468;29;20480;-74